sensor_id;sensor_type;location;lat;lon;timestamp;pressure;altitude;pressure_sealevel;temperature;humidity
64683;BME280;51107;47.652;19.016;2022-12-18T00:00:23;101278.19;;;-3.49;97.22
64683;BME280;51107;47.652;19.016;2022-12-18T00:02:53;101286.53;;;-3.36;96.76
64683;BME280;51107;47.652;19.016;2022-12-18T00:05:21;101286.38;;;-3.28;96.23
64683;BME280;51107;47.652;19.016;2022-12-18T00:07:50;101290.28;;;-3.05;94.74
64683;BME280;51107;47.652;19.016;2022-12-18T00:10:18;101287.81;;;-3.12;93.64
64683;BME280;51107;47.652;19.016;2022-12-18T00:12:47;101295.31;;;-3.02;92.97
64683;BME280;51107;47.652;19.016;2022-12-18T00:15:15;101301.22;;;-3.00;92.69
64683;BME280;51107;47.652;19.016;2022-12-18T00:17:43;101310.50;;;-2.95;91.80
64683;BME280;51107;47.652;19.016;2022-12-18T00:20:11;101312.34;;;-3.03;91.72
64683;BME280;51107;47.652;19.016;2022-12-18T00:22:40;101315.06;;;-3.17;93.24
64683;BME280;51107;47.652;19.016;2022-12-18T00:25:08;101313.41;;;-3.18;93.35
64683;BME280;51107;47.652;19.016;2022-12-18T00:27:37;101320.09;;;-3.11;92.64
64683;BME280;51107;47.652;19.016;2022-12-18T00:30:06;101333.88;;;-3.24;93.14
64683;BME280;51107;47.652;19.016;2022-12-18T00:32:34;101343.16;;;-3.20;93.20
64683;BME280;51107;47.652;19.016;2022-12-18T00:35:04;101343.94;;;-3.15;92.91
64683;BME280;51107;47.652;19.016;2022-12-18T00:37:36;101344.03;;;-3.21;93.21
64683;BME280;51107;47.652;19.016;2022-12-18T00:40:05;101352.63;;;-3.27;93.73
64683;BME280;51107;47.652;19.016;2022-12-18T00:42:36;101352.69;;;-3.31;94.22
64683;BME280;51107;47.652;19.016;2022-12-18T00:45:29;101354.38;;;-3.30;94.41
64683;BME280;51107;47.652;19.016;2022-12-18T00:47:57;101353.56;;;-3.34;94.58
64683;BME280;51107;47.652;19.016;2022-12-18T00:50:26;101354.34;;;-3.29;93.94
64683;BME280;51107;47.652;19.016;2022-12-18T00:52:55;101359.59;;;-3.38;94.17
64683;BME280;51107;47.652;19.016;2022-12-18T00:55:23;101363.94;;;-3.46;95.05
64683;BME280;51107;47.652;19.016;2022-12-18T00:57:52;101365.41;;;-3.30;94.03
64683;BME280;51107;47.652;19.016;2022-12-18T01:00:20;101368.63;;;-3.18;93.14
64683;BME280;51107;47.652;19.016;2022-12-18T01:02:49;101370.31;;;-3.17;92.72
64683;BME280;51107;47.652;19.016;2022-12-18T01:05:18;101377.16;;;-3.19;92.00
64683;BME280;51107;47.652;19.016;2022-12-18T01:07:46;101375.53;;;-3.23;92.56
64683;BME280;51107;47.652;19.016;2022-12-18T01:10:14;101381.72;;;-3.40;93.74
64683;BME280;51107;47.652;19.016;2022-12-18T01:12:43;101389.28;;;-3.35;93.36
64683;BME280;51107;47.652;19.016;2022-12-18T01:15:12;101395.34;;;-3.44;94.26
64683;BME280;51107;47.652;19.016;2022-12-18T01:17:41;101389.34;;;-3.38;94.32
64683;BME280;51107;47.652;19.016;2022-12-18T01:20:12;101393.66;;;-3.45;94.69
64683;BME280;51107;47.652;19.016;2022-12-18T01:22:40;101393.53;;;-3.34;93.59
64683;BME280;51107;47.652;19.016;2022-12-18T01:25:09;101390.84;;;-3.27;92.95
64683;BME280;51107;47.652;19.016;2022-12-18T01:27:37;101390.09;;;-3.32;93.41
64683;BME280;51107;47.652;19.016;2022-12-18T01:30:06;101390.03;;;-3.29;93.16
64683;BME280;51107;47.652;19.016;2022-12-18T01:32:34;101390.88;;;-3.28;92.84
64683;BME280;51107;47.652;19.016;2022-12-18T01:35:03;101392.66;;;-3.33;92.23
64683;BME280;51107;47.652;19.016;2022-12-18T01:37:31;101407.28;;;-3.48;92.70
64683;BME280;51107;47.652;19.016;2022-12-18T01:40:00;101407.03;;;-3.31;92.18
64683;BME280;51107;47.652;19.016;2022-12-18T01:42:28;101400.34;;;-3.38;91.61
64683;BME280;51107;47.652;19.016;2022-12-18T01:47:46;101405.69;;;-3.55;92.25
64683;BME280;51107;47.652;19.016;2022-12-18T01:52:52;101409.34;;;-3.78;93.67
64683;BME280;51107;47.652;19.016;2022-12-18T01:55:24;101419.38;;;-3.65;94.16
64683;BME280;51107;47.652;19.016;2022-12-18T01:57:55;101422.09;;;-3.78;95.13
64683;BME280;51107;47.652;19.016;2022-12-18T02:00:25;101417.94;;;-3.85;95.59
64683;BME280;51107;47.652;19.016;2022-12-18T02:02:54;101434.81;;;-3.78;95.77
64683;BME280;51107;47.652;19.016;2022-12-18T02:06:00;101422.84;;;-3.71;95.22
64683;BME280;51107;47.652;19.016;2022-12-18T02:11:42;101420.88;;;-3.46;93.49
64683;BME280;51107;47.652;19.016;2022-12-18T02:17:18;101448.28;;;-3.66;94.46
64683;BME280;51107;47.652;19.016;2022-12-18T02:27:51;101459.38;;;-3.73;95.87
64683;BME280;51107;47.652;19.016;2022-12-18T02:30:21;101467.06;;;-3.75;96.20
64683;BME280;51107;47.652;19.016;2022-12-18T02:32:52;101466.94;;;-3.64;95.36
64683;BME280;51107;47.652;19.016;2022-12-18T02:35:23;101474.72;;;-3.77;96.12
64683;BME280;51107;47.652;19.016;2022-12-18T02:37:53;101462.72;;;-3.67;95.53
64683;BME280;51107;47.652;19.016;2022-12-18T02:40:23;101463.69;;;-3.77;95.13
64683;BME280;51107;47.652;19.016;2022-12-18T02:42:52;101472.28;;;-3.89;95.83
64683;BME280;51107;47.652;19.016;2022-12-18T02:45:21;101465.88;;;-3.46;93.65
64683;BME280;51107;47.652;19.016;2022-12-18T02:47:50;101470.47;;;-3.74;94.31
64683;BME280;51107;47.652;19.016;2022-12-18T02:53:18;101473.94;;;-3.83;95.26
64683;BME280;51107;47.652;19.016;2022-12-18T02:56:29;101481.69;;;-3.94;95.25
64683;BME280;51107;47.652;19.016;2022-12-18T02:59:19;101472.28;;;-3.87;95.50
64683;BME280;51107;47.652;19.016;2022-12-18T03:02:35;101484.84;;;-3.72;93.97
64683;BME280;51107;47.652;19.016;2022-12-18T03:05:16;101474.78;;;-3.81;94.88
64683;BME280;51107;47.652;19.016;2022-12-18T03:07:56;101487.44;;;-3.77;94.61
64683;BME280;51107;47.652;19.016;2022-12-18T03:10:31;101502.75;;;-3.80;93.59
64683;BME280;51107;47.652;19.016;2022-12-18T03:13:10;101496.81;;;-3.79;94.33
64683;BME280;51107;47.652;19.016;2022-12-18T03:15:46;101500.25;;;-3.81;94.33
64683;BME280;51107;47.652;19.016;2022-12-18T03:18:22;101505.53;;;-4.03;94.97
64683;BME280;51107;47.652;19.016;2022-12-18T03:20:54;101515.53;;;-3.81;94.79
64683;BME280;51107;47.652;19.016;2022-12-18T03:23:27;101509.78;;;-4.02;94.16
64683;BME280;51107;47.652;19.016;2022-12-18T03:26:02;101509.84;;;-4.10;94.67
64683;BME280;51107;47.652;19.016;2022-12-18T03:28:39;101515.88;;;-4.20;96.13
64683;BME280;51107;47.652;19.016;2022-12-18T03:31:12;101533.62;;;-4.14;96.92
64683;BME280;51107;47.652;19.016;2022-12-18T03:33:56;101529.28;;;-4.01;95.85
64683;BME280;51107;47.652;19.016;2022-12-18T03:36:26;101527.47;;;-3.88;94.65
64683;BME280;51107;47.652;19.016;2022-12-18T03:38:58;101527.44;;;-3.85;94.06
64683;BME280;51107;47.652;19.016;2022-12-18T03:41:47;101528.28;;;-3.87;93.95
64683;BME280;51107;47.652;19.016;2022-12-18T03:47:21;101526.59;;;-3.88;93.26
64683;BME280;51107;47.652;19.016;2022-12-18T03:50:02;101536.91;;;-3.98;94.33
64683;BME280;51107;47.652;19.016;2022-12-18T03:52:52;101545.56;;;-4.20;95.46
64683;BME280;51107;47.652;19.016;2022-12-18T03:55:25;101541.38;;;-4.28;96.73
64683;BME280;51107;47.652;19.016;2022-12-18T03:57:59;101534.47;;;-4.10;96.54
64683;BME280;51107;47.652;19.016;2022-12-18T04:00:31;101540.38;;;-4.05;95.52
64683;BME280;51107;47.652;19.016;2022-12-18T04:03:01;101543.97;;;-4.31;97.47
64683;BME280;51107;47.652;19.016;2022-12-18T04:05:33;101543.13;;;-4.34;97.78
64683;BME280;51107;47.652;19.016;2022-12-18T04:08:03;101547.38;;;-4.33;97.76
64683;BME280;51107;47.652;19.016;2022-12-18T04:10:36;101547.44;;;-4.46;97.93
64683;BME280;51107;47.652;19.016;2022-12-18T04:13:05;101552.56;;;-4.49;98.69
64683;BME280;51107;47.652;19.016;2022-12-18T04:15:36;101561.00;;;-4.44;99.08
64683;BME280;51107;47.652;19.016;2022-12-18T04:18:06;101552.50;;;-4.43;99.16
64683;BME280;51107;47.652;19.016;2022-12-18T04:20:35;101561.88;;;-4.49;99.57
64683;BME280;51107;47.652;19.016;2022-12-18T04:23:04;101564.47;;;-4.54;99.85
64683;BME280;51107;47.652;19.016;2022-12-18T04:25:33;101569.53;;;-4.51;99.63
64683;BME280;51107;47.652;19.016;2022-12-18T04:28:04;101567.84;;;-4.55;99.93
64683;BME280;51107;47.652;19.016;2022-12-18T04:30:33;101563.47;;;-4.33;99.53
64683;BME280;51107;47.652;19.016;2022-12-18T04:33:02;101577.94;;;-4.43;99.60
64683;BME280;51107;47.652;19.016;2022-12-18T04:35:31;101572.75;;;-4.24;98.70
64683;BME280;51107;47.652;19.016;2022-12-18T04:37:59;101576.19;;;-4.34;98.96
64683;BME280;51107;47.652;19.016;2022-12-18T04:40:28;101571.28;;;-4.59;99.96
64683;BME280;51107;47.652;19.016;2022-12-18T04:42:57;101583.09;;;-4.52;100.00
64683;BME280;51107;47.652;19.016;2022-12-18T04:45:25;101580.53;;;-4.52;100.00
64683;BME280;51107;47.652;19.016;2022-12-18T04:47:53;101588.12;;;-4.43;99.53
64683;BME280;51107;47.652;19.016;2022-12-18T04:50:21;101592.34;;;-4.34;97.99
64683;BME280;51107;47.652;19.016;2022-12-18T04:52:50;101602.50;;;-4.35;97.73
64683;BME280;51107;47.652;19.016;2022-12-18T04:55:18;101603.31;;;-4.30;97.97
64683;BME280;51107;47.652;19.016;2022-12-18T04:57:47;101607.56;;;-4.35;97.91
64683;BME280;51107;47.652;19.016;2022-12-18T05:00:15;101611.84;;;-4.37;98.31
64683;BME280;51107;47.652;19.016;2022-12-18T05:02:44;101607.66;;;-4.49;98.89
64683;BME280;51107;47.652;19.016;2022-12-18T05:05:13;101614.53;;;-4.64;98.77
64683;BME280;51107;47.652;19.016;2022-12-18T05:07:41;101614.47;;;-4.51;98.68
64683;BME280;51107;47.652;19.016;2022-12-18T05:10:09;101614.47;;;-4.56;98.82
64683;BME280;51107;47.652;19.016;2022-12-18T05:12:38;101623.03;;;-4.65;99.74
64683;BME280;51107;47.652;19.016;2022-12-18T05:15:31;101612.81;;;-4.62;99.61
64683;BME280;51107;47.652;19.016;2022-12-18T05:18:00;101615.41;;;-4.68;99.49
64683;BME280;51107;47.652;19.016;2022-12-18T05:20:29;101628.94;;;-4.58;100.00
64683;BME280;51107;47.652;19.016;2022-12-18T05:22:57;101622.94;;;-4.49;99.51
64683;BME280;51107;47.652;19.016;2022-12-18T05:25:26;101623.03;;;-4.65;99.31
64683;BME280;51107;47.652;19.016;2022-12-18T05:27:55;101625.53;;;-4.60;99.13
64683;BME280;51107;47.652;19.016;2022-12-18T05:30:24;101641.66;;;-4.61;98.84
64683;BME280;51107;47.652;19.016;2022-12-18T05:32:53;101641.62;;;-4.50;99.07
64683;BME280;51107;47.652;19.016;2022-12-18T05:35:22;101633.06;;;-4.40;98.51
64683;BME280;51107;47.652;19.016;2022-12-18T05:37:50;101638.16;;;-4.41;98.19
64683;BME280;51107;47.652;19.016;2022-12-18T05:40:18;101647.56;;;-4.54;98.60
64683;BME280;51107;47.652;19.016;2022-12-18T05:42:47;101649.31;;;-4.70;98.67
64683;BME280;51107;47.652;19.016;2022-12-18T05:45:15;101651.88;;;-4.70;99.08
64683;BME280;51107;47.652;19.016;2022-12-18T05:47:43;101661.19;;;-4.74;99.73
64683;BME280;51107;47.652;19.016;2022-12-18T05:50:11;101656.13;;;-4.77;100.00
64683;BME280;51107;47.652;19.016;2022-12-18T05:52:39;101653.56;;;-4.69;100.00
64683;BME280;51107;47.652;19.016;2022-12-18T05:55:08;101661.16;;;-4.63;99.72
64683;BME280;51107;47.652;19.016;2022-12-18T05:57:36;101671.38;;;-4.68;99.94
64683;BME280;51107;47.652;19.016;2022-12-18T06:00:05;101672.25;;;-4.80;100.00
64683;BME280;51107;47.652;19.016;2022-12-18T06:02:38;101667.22;;;-4.93;100.00
64683;BME280;51107;47.652;19.016;2022-12-18T06:05:07;101671.47;;;-5.00;100.00
64683;BME280;51107;47.652;19.016;2022-12-18T06:07:35;101680.78;;;-5.01;100.00
64683;BME280;51107;47.652;19.016;2022-12-18T06:10:04;101685.84;;;-4.96;100.00
64683;BME280;51107;47.652;19.016;2022-12-18T06:12:33;101688.41;;;-4.96;100.00
64683;BME280;51107;47.652;19.016;2022-12-18T06:15:02;101694.34;;;-5.05;100.00
64683;BME280;51107;47.652;19.016;2022-12-18T06:17:31;101693.56;;;-5.32;100.00
64683;BME280;51107;47.652;19.016;2022-12-18T06:20:00;101687.59;;;-5.17;100.00
64683;BME280;51107;47.652;19.016;2022-12-18T06:22:31;101694.37;;;-5.16;100.00
64683;BME280;51107;47.652;19.016;2022-12-18T06:25:00;101704.53;;;-5.05;100.00
64683;BME280;51107;47.652;19.016;2022-12-18T06:27:28;101701.97;;;-4.94;100.00
64683;BME280;51107;47.652;19.016;2022-12-18T06:29:56;101699.44;;;-5.11;100.00
64683;BME280;51107;47.652;19.016;2022-12-18T06:32:25;101720.66;;;-5.14;100.00
64683;BME280;51107;47.652;19.016;2022-12-18T06:34:53;101721.50;;;-5.16;100.00
64683;BME280;51107;47.652;19.016;2022-12-18T06:37:23;101720.66;;;-5.34;100.00
64683;BME280;51107;47.652;19.016;2022-12-18T06:39:54;101720.66;;;-5.44;100.00
64683;BME280;51107;47.652;19.016;2022-12-18T06:42:23;101724.87;;;-5.22;100.00
64683;BME280;51107;47.652;19.016;2022-12-18T06:44:51;101724.03;;;-5.25;100.00
64683;BME280;51107;47.652;19.016;2022-12-18T06:47:20;101733.38;;;-5.37;100.00
64683;BME280;51107;47.652;19.016;2022-12-18T06:49:48;101735.91;;;-5.23;100.00
64683;BME280;51107;47.652;19.016;2022-12-18T06:52:16;101734.19;;;-5.47;100.00
64683;BME280;51107;47.652;19.016;2022-12-18T06:54:45;101742.66;;;-5.73;100.00
64683;BME280;51107;47.652;19.016;2022-12-18T06:57:13;101745.19;;;-5.85;100.00
64683;BME280;51107;47.652;19.016;2022-12-18T06:59:42;101740.12;;;-5.73;100.00
64683;BME280;51107;47.652;19.016;2022-12-18T07:02:11;101751.13;;;-5.61;100.00
64683;BME280;51107;47.652;19.016;2022-12-18T07:04:40;101742.69;;;-5.43;100.00
64683;BME280;51107;47.652;19.016;2022-12-18T07:07:08;101754.53;;;-5.15;100.00
64683;BME280;51107;47.652;19.016;2022-12-18T07:09:37;101740.12;;;-5.08;100.00
64683;BME280;51107;47.652;19.016;2022-12-18T07:12:05;101761.28;;;-5.09;100.00
64683;BME280;51107;47.652;19.016;2022-12-18T07:14:34;101768.91;;;-5.15;100.00
64683;BME280;51107;47.652;19.016;2022-12-18T07:17:03;101762.97;;;-5.00;100.00
64683;BME280;51107;47.652;19.016;2022-12-18T07:19:32;101761.25;;;-4.76;99.97
64683;BME280;51107;47.652;19.016;2022-12-18T07:22:01;101764.47;;;-4.31;100.00
64683;BME280;51107;47.652;19.016;2022-12-18T07:24:30;101777.91;;;-4.01;99.33
64683;BME280;51107;47.652;19.016;2022-12-18T07:26:58;101781.97;;;-3.68;98.21
64683;BME280;51107;47.652;19.016;2022-12-18T07:29:26;101779.25;;;-3.45;96.70
64683;BME280;51107;47.652;19.016;2022-12-18T07:31:55;101779.91;;;-3.18;94.13
64683;BME280;51107;47.652;19.016;2022-12-18T07:34:23;101795.91;;;-3.03;92.22
64683;BME280;51107;47.652;19.016;2022-12-18T07:36:51;101793.28;;;-2.94;91.42
64683;BME280;51107;47.652;19.016;2022-12-18T07:39:20;101800.88;;;-2.85;91.34
64683;BME280;51107;47.652;19.016;2022-12-18T07:41:48;101810.22;;;-2.82;91.70
64683;BME280;51107;47.652;19.016;2022-12-18T07:44:40;101798.97;;;-2.67;93.06
64683;BME280;51107;47.652;19.016;2022-12-18T07:47:08;101810.84;;;-2.63;91.16
64683;BME280;51107;47.652;19.016;2022-12-18T07:49:39;101805.75;;;-2.63;92.03
64683;BME280;51107;47.652;19.016;2022-12-18T07:52:08;101819.34;;;-2.61;90.94
64683;BME280;51107;47.652;19.016;2022-12-18T07:54:37;101825.88;;;-2.35;91.55
64683;BME280;51107;47.652;19.016;2022-12-18T07:57:06;101834.25;;;-2.24;89.61
64683;BME280;51107;47.652;19.016;2022-12-18T07:59:54;101846.28;;;-2.34;87.58
64683;BME280;51107;47.652;19.016;2022-12-18T08:02:22;101841.13;;;-2.29;87.39
64683;BME280;51107;47.652;19.016;2022-12-18T08:04:51;101841.97;;;-2.30;88.24
64683;BME280;51107;47.652;19.016;2022-12-18T08:07:19;101842.88;;;-2.36;87.69
64683;BME280;51107;47.652;19.016;2022-12-18T08:09:47;101855.38;;;-2.10;88.02
64683;BME280;51107;47.652;19.016;2022-12-18T08:12:16;101847.34;;;-1.82;86.84
64683;BME280;51107;47.652;19.016;2022-12-18T08:14:44;101859.09;;;-1.67;84.90
64683;BME280;51107;47.652;19.016;2022-12-18T08:17:12;101853.56;;;-1.36;84.79
64683;BME280;51107;47.652;19.016;2022-12-18T08:19:41;101866.97;;;-1.22;83.53
64683;BME280;51107;47.652;19.016;2022-12-18T08:22:09;101865.09;;;-1.09;83.40
64683;BME280;51107;47.652;19.016;2022-12-18T08:24:37;101859.72;;;-0.93;82.36
64683;BME280;51107;47.652;19.016;2022-12-18T08:27:05;101858.81;;;-0.89;81.16
64683;BME280;51107;47.652;19.016;2022-12-18T08:29:56;101861.25;;;-0.83;82.65
64683;BME280;51107;47.652;19.016;2022-12-18T08:32:25;101867.44;;;-0.46;80.18
64683;BME280;51107;47.652;19.016;2022-12-18T08:34:54;101854.28;;;-0.28;79.18
64683;BME280;51107;47.652;19.016;2022-12-18T08:37:22;101870.00;;;-0.01;78.64
64683;BME280;51107;47.652;19.016;2022-12-18T08:39:51;101872.34;;;0.10;76.73
64683;BME280;51107;47.652;19.016;2022-12-18T08:42:19;101869.97;;;0.01;79.00
64683;BME280;51107;47.652;19.016;2022-12-18T08:45:07;101872.94;;;0.23;76.12
64683;BME280;51107;47.652;19.016;2022-12-18T08:47:35;101871.94;;;1.05;73.53
64683;BME280;51107;47.652;19.016;2022-12-18T08:50:03;101869.44;;;1.02;74.24
64683;BME280;51107;47.652;19.016;2022-12-18T08:52:32;101880.28;;;1.13;75.28
64683;BME280;51107;47.652;19.016;2022-12-18T08:55:00;101885.19;;;0.87;74.28
64683;BME280;51107;47.652;19.016;2022-12-18T08:57:28;101872.75;;;0.70;75.18
64683;BME280;51107;47.652;19.016;2022-12-18T08:59:57;101879.59;;;1.41;73.13
64683;BME280;51107;47.652;19.016;2022-12-18T09:02:25;101879.78;;;1.33;71.66
64683;BME280;51107;47.652;19.016;2022-12-18T09:04:54;101885.59;;;2.04;70.54
64683;BME280;51107;47.652;19.016;2022-12-18T09:07:25;101883.06;;;1.72;70.74
64683;BME280;51107;47.652;19.016;2022-12-18T09:09:53;101889.91;;;2.04;72.60
64683;BME280;51107;47.652;19.016;2022-12-18T09:12:21;101893.41;;;2.01;69.14
64683;BME280;51107;47.652;19.016;2022-12-18T09:14:50;101889.41;;;2.51;70.38
64683;BME280;51107;47.652;19.016;2022-12-18T09:17:18;101903.66;;;2.33;69.88
64683;BME280;51107;47.652;19.016;2022-12-18T09:19:46;101898.91;;;2.49;68.00
64683;BME280;51107;47.652;19.016;2022-12-18T09:22:15;101908.31;;;3.05;66.02
64683;BME280;51107;47.652;19.016;2022-12-18T09:24:43;101904.09;;;2.76;66.64
64683;BME280;51107;47.652;19.016;2022-12-18T09:27:11;101913.72;;;3.24;65.15
64683;BME280;51107;47.652;19.016;2022-12-18T09:29:40;101907.87;;;3.19;66.15
64683;BME280;51107;47.652;19.016;2022-12-18T09:32:08;101920.25;;;3.34;64.57
64683;BME280;51107;47.652;19.016;2022-12-18T09:34:36;101903.06;;;3.60;65.89
64683;BME280;51107;47.652;19.016;2022-12-18T09:37:05;101913.75;;;2.69;66.67
64683;BME280;51107;47.652;19.016;2022-12-18T09:39:33;101908.47;;;3.52;63.73
64683;BME280;51107;47.652;19.016;2022-12-18T09:42:01;101906.53;;;2.80;65.91
64683;BME280;51107;47.652;19.016;2022-12-18T09:44:36;101899.38;;;3.17;66.25
64683;BME280;51107;47.652;19.016;2022-12-18T09:47:24;101903.09;;;3.84;61.54
64683;BME280;51107;47.652;19.016;2022-12-18T09:50:34;101907.56;;;3.01;62.16
64683;BME280;51107;47.652;19.016;2022-12-18T09:53:14;101907.00;;;3.96;60.46
64683;BME280;51107;47.652;19.016;2022-12-18T09:55:45;101897.00;;;3.36;62.56
64683;BME280;51107;47.652;19.016;2022-12-18T09:58:31;101908.88;;;2.60;62.56
64683;BME280;51107;47.652;19.016;2022-12-18T10:01:01;101906.19;;;3.45;63.67
64683;BME280;51107;47.652;19.016;2022-12-18T10:03:29;101894.37;;;4.12;61.04
64683;BME280;51107;47.652;19.016;2022-12-18T10:11:39;101894.16;;;3.69;61.26
64683;BME280;51107;47.652;19.016;2022-12-18T10:15:11;101891.25;;;4.49;61.10
64683;BME280;51107;47.652;19.016;2022-12-18T10:17:13;101893.38;;;4.38;61.38
64683;BME280;51107;47.652;19.016;2022-12-18T10:19:58;101884.53;;;4.45;59.12
64683;BME280;51107;47.652;19.016;2022-12-18T10:22:36;101886.75;;;4.54;59.21
64683;BME280;51107;47.652;19.016;2022-12-18T10:27:52;101897.78;;;4.36;59.88
64683;BME280;51107;47.652;19.016;2022-12-18T10:30:23;101881.91;;;3.99;59.70
64683;BME280;51107;47.652;19.016;2022-12-18T10:32:51;101893.44;;;3.65;60.68
64683;BME280;51107;47.652;19.016;2022-12-18T10:35:23;101892.44;;;3.44;61.34
64683;BME280;51107;47.652;19.016;2022-12-18T10:38:21;101893.69;;;4.30;61.69
64683;BME280;51107;47.652;19.016;2022-12-18T10:41:01;101886.38;;;4.41;60.32
64683;BME280;51107;47.652;19.016;2022-12-18T10:43:34;101886.72;;;4.76;59.00
64683;BME280;51107;47.652;19.016;2022-12-18T10:51:35;101889.69;;;4.21;61.63
64683;BME280;51107;47.652;19.016;2022-12-18T10:54:12;101889.53;;;3.79;63.23
64683;BME280;51107;47.652;19.016;2022-12-18T10:56:42;101885.19;;;4.50;59.91
64683;BME280;51107;47.652;19.016;2022-12-18T10:59:13;101875.94;;;4.45;59.55
64683;BME280;51107;47.652;19.016;2022-12-18T11:01:46;101879.47;;;3.96;62.19
64683;BME280;51107;47.652;19.016;2022-12-18T11:04:23;101888.75;;;4.00;62.78
64683;BME280;51107;47.652;19.016;2022-12-18T11:07:03;101872.88;;;3.38;61.11
64683;BME280;51107;47.652;19.016;2022-12-18T11:09:35;101874.66;;;3.62;63.93
64683;BME280;51107;47.652;19.016;2022-12-18T11:14:45;101868.41;;;3.18;62.69
64683;BME280;51107;47.652;19.016;2022-12-18T11:17:32;101864.91;;;3.21;65.38
64683;BME280;51107;47.652;19.016;2022-12-18T11:20:29;101860.56;;;3.72;61.00
64683;BME280;51107;47.652;19.016;2022-12-18T11:22:57;101862.25;;;4.20;61.10
64683;BME280;51107;47.652;19.016;2022-12-18T11:25:30;101858.66;;;3.77;61.22
64683;BME280;51107;47.652;19.016;2022-12-18T11:28:26;101872.56;;;3.48;60.73
64683;BME280;51107;47.652;19.016;2022-12-18T11:36:48;101861.78;;;3.62;64.93
64683;BME280;51107;47.652;19.016;2022-12-18T11:39:39;101858.44;;;3.60;63.80
64683;BME280;51107;47.652;19.016;2022-12-18T11:42:14;101852.97;;;3.67;63.94
64683;BME280;51107;47.652;19.016;2022-12-18T11:44:50;101854.34;;;3.02;63.59
64683;BME280;51107;47.652;19.016;2022-12-18T11:47:52;101849.53;;;3.18;63.28
64683;BME280;51107;47.652;19.016;2022-12-18T11:50:26;101856.41;;;3.17;63.69
64683;BME280;51107;47.652;19.016;2022-12-18T11:52:57;101851.88;;;2.72;63.24
64683;BME280;51107;47.652;19.016;2022-12-18T11:55:37;101851.72;;;2.77;66.79
64683;BME280;51107;47.652;19.016;2022-12-18T12:09:29;101841.13;;;2.31;67.95
64683;BME280;51107;47.652;19.016;2022-12-18T12:32:00;101849.44;;;1.81;70.01
64683;BME280;51107;47.652;19.016;2022-12-18T12:35:06;101846.94;;;1.78;68.53
64683;BME280;51107;47.652;19.016;2022-12-18T12:37:42;101837.56;;;1.77;66.41
64683;BME280;51107;47.652;19.016;2022-12-18T12:40:19;101842.84;;;1.70;68.30
64683;BME280;51107;47.652;19.016;2022-12-18T12:43:27;101840.69;;;1.55;70.02
64683;BME280;51107;47.652;19.016;2022-12-18T12:46:05;101851.91;;;1.52;66.86
64683;BME280;51107;47.652;19.016;2022-12-18T12:48:56;101850.19;;;1.51;67.60
64683;BME280;51107;47.652;19.016;2022-12-18T12:51:28;101865.66;;;1.50;69.42
64683;BME280;51107;47.652;19.016;2022-12-18T12:53:59;101861.16;;;1.58;68.72
64683;BME280;51107;47.652;19.016;2022-12-18T12:56:53;101872.41;;;1.54;65.46
64683;BME280;51107;47.652;19.016;2022-12-18T13:05:26;101880.50;;;1.39;64.88
64683;BME280;51107;47.652;19.016;2022-12-18T13:08:09;101894.00;;;1.47;67.94
64683;BME280;51107;47.652;19.016;2022-12-18T13:10:40;101881.16;;;1.47;70.15
64683;BME280;51107;47.652;19.016;2022-12-18T13:13:12;101888.78;;;1.50;71.47
64683;BME280;51107;47.652;19.016;2022-12-18T13:16:07;101896.66;;;1.44;70.73
64683;BME280;51107;47.652;19.016;2022-12-18T13:18:36;101893.22;;;1.43;69.68
64683;BME280;51107;47.652;19.016;2022-12-18T13:21:21;101885.50;;;1.45;70.29
64683;BME280;51107;47.652;19.016;2022-12-18T13:23:52;101900.22;;;1.38;71.30
64683;BME280;51107;47.652;19.016;2022-12-18T13:26:30;101901.78;;;1.44;72.21
64683;BME280;51107;47.652;19.016;2022-12-18T13:28:59;101904.37;;;1.44;71.43
64683;BME280;51107;47.652;19.016;2022-12-18T13:34:22;101898.50;;;1.39;68.90
64683;BME280;51107;47.652;19.016;2022-12-18T13:36:57;101904.22;;;1.14;66.01
64683;BME280;51107;47.652;19.016;2022-12-18T13:39:44;101905.06;;;1.16;67.71
64683;BME280;51107;47.652;19.016;2022-12-18T13:45:42;101919.53;;;1.18;70.43
64683;BME280;51107;47.652;19.016;2022-12-18T13:48:19;101911.03;;;1.16;70.76
64683;BME280;51107;47.652;19.016;2022-12-18T13:50:52;101918.75;;;1.15;72.16
64683;BME280;51107;47.652;19.016;2022-12-18T13:53:30;101921.50;;;1.07;75.35
64683;BME280;51107;47.652;19.016;2022-12-18T13:56:02;101925.06;;;1.01;75.66
64683;BME280;51107;47.652;19.016;2022-12-18T13:58:31;101920.03;;;0.97;76.01
64683;BME280;51107;47.652;19.016;2022-12-18T14:01:00;101912.50;;;0.89;75.26
64683;BME280;51107;47.652;19.016;2022-12-18T14:03:30;101916.81;;;0.89;76.85
64683;BME280;51107;47.652;19.016;2022-12-18T14:06:02;101922.97;;;0.81;77.12
64683;BME280;51107;47.652;19.016;2022-12-18T14:08:36;101929.09;;;0.74;77.71
64683;BME280;51107;47.652;19.016;2022-12-18T14:11:06;101914.72;;;0.67;78.29
64683;BME280;51107;47.652;19.016;2022-12-18T14:13:39;101922.59;;;0.59;78.75
64683;BME280;51107;47.652;19.016;2022-12-18T14:16:13;101924.34;;;0.57;78.39
64683;BME280;51107;47.652;19.016;2022-12-18T14:18:57;101921.06;;;0.50;78.35
64683;BME280;51107;47.652;19.016;2022-12-18T14:21:37;101930.41;;;0.53;78.72
64683;BME280;51107;47.652;19.016;2022-12-18T14:24:20;101914.38;;;0.43;79.33
64683;BME280;51107;47.652;19.016;2022-12-18T14:26:50;101928.31;;;0.30;79.71
64683;BME280;51107;47.652;19.016;2022-12-18T14:29:25;101936.19;;;0.22;79.90
64683;BME280;51107;47.652;19.016;2022-12-18T14:34:32;101943.19;;;0.14;80.07
64683;BME280;51107;47.652;19.016;2022-12-18T14:37:00;101950.16;;;0.06;80.46
64683;BME280;51107;47.652;19.016;2022-12-18T14:39:28;101939.25;;;-0.06;80.86
64683;BME280;51107;47.652;19.016;2022-12-18T14:41:57;101946.25;;;-0.14;81.26
64683;BME280;51107;47.652;19.016;2022-12-18T14:44:25;101944.66;;;-0.21;82.15